createdAt,value
2023-03-17T00:02:13.741Z,18.23
2023-03-17T00:04:40.348Z,18.21
2023-03-17T00:07:08.445Z,18.22
2023-03-17T00:09:34.807Z,18.21
2023-03-17T00:12:01.152Z,18.20
2023-03-17T00:14:27.513Z,18.19
2023-03-17T00:16:53.947Z,18.17
2023-03-17T00:19:33.424Z,18.16
2023-03-17T00:22:00.959Z,18.15
2023-03-17T00:24:27.711Z,18.13
2023-03-17T00:26:54.256Z,18.14
2023-03-17T00:29:20.695Z,18.12
2023-03-17T00:31:47.128Z,18.11
2023-03-17T00:34:16.612Z,18.10
2023-03-17T00:36:45.996Z,18.10
2023-03-17T00:41:41.700Z,18.10
2023-03-17T00:44:08.125Z,18.08
2023-03-17T00:46:38.317Z,18.07
2023-03-17T00:49:21.088Z,18.05
2023-03-17T00:51:47.828Z,18.06
2023-03-17T00:54:14.705Z,18.06
2023-03-17T00:56:42.270Z,18.05
2023-03-17T00:59:19.358Z,18.04
2023-03-17T01:01:46.272Z,18.03
2023-03-17T01:04:12.713Z,18.03
2023-03-17T01:06:39.391Z,18.02
2023-03-17T01:09:05.886Z,18.02
2023-03-17T01:11:32.232Z,18.01
2023-03-17T01:13:59.052Z,18.01
2023-03-17T01:16:25.525Z,18.01
2023-03-17T01:18:51.912Z,18.02
2023-03-17T01:21:18.252Z,18.02
2023-03-17T01:23:44.619Z,18.02
2023-03-17T01:26:11.720Z,18.00
2023-03-17T01:28:38.067Z,18.02
2023-03-17T01:31:04.964Z,18.01
2023-03-17T01:33:31.387Z,18.00
2023-03-17T01:35:57.803Z,17.98
2023-03-17T01:38:24.712Z,17.98
2023-03-17T01:40:52.037Z,17.98
2023-03-17T01:43:20.774Z,17.97
2023-03-17T01:46:06.702Z,17.96
2023-03-17T01:48:38.140Z,17.97
2023-03-17T01:51:06.328Z,17.97
2023-03-17T01:53:33.701Z,17.95
2023-03-17T01:56:00.801Z,17.95
2023-03-17T01:58:27.799Z,17.94
2023-03-17T02:00:54.252Z,17.93
2023-03-17T02:03:21.189Z,17.94
2023-03-17T02:05:48.584Z,17.92
2023-03-17T02:08:16.412Z,17.91
2023-03-17T02:10:43.452Z,17.94
2023-03-17T02:13:11.567Z,17.90
2023-03-17T02:15:40.337Z,17.92
2023-03-17T02:18:06.984Z,17.94
2023-03-17T02:20:33.332Z,17.94
2023-03-17T02:23:00.859Z,17.91
2023-03-17T02:25:30.683Z,17.90
2023-03-17T02:28:00.015Z,17.89
2023-03-17T02:30:26.636Z,17.89
2023-03-17T02:32:53.009Z,17.87
2023-03-17T02:35:20.409Z,17.87
2023-03-17T02:37:47.021Z,17.86
2023-03-17T02:40:14.618Z,17.85
2023-03-17T02:42:41.970Z,17.84
2023-03-17T02:45:11.484Z,17.83
2023-03-17T02:47:37.983Z,17.84
2023-03-17T02:50:05.605Z,17.83
2023-03-17T02:52:31.952Z,17.83
2023-03-17T02:54:58.360Z,17.82
2023-03-17T02:57:24.688Z,17.81
2023-03-17T02:59:51.333Z,17.80
2023-03-17T03:02:17.669Z,17.77
2023-03-17T03:04:44.060Z,17.79
2023-03-17T03:07:10.484Z,17.76
2023-03-17T03:09:37.150Z,17.75
2023-03-17T03:12:04.245Z,17.75
2023-03-17T03:14:30.669Z,17.73
2023-03-17T03:16:57.137Z,17.74
2023-03-17T03:19:24.326Z,17.74
2023-03-17T03:21:50.756Z,17.73
2023-03-17T03:24:17.117Z,17.72
2023-03-17T03:26:43.910Z,17.72
2023-03-17T03:29:10.383Z,17.73
2023-03-17T03:31:36.798Z,17.73
2023-03-17T03:34:03.122Z,17.73
2023-03-17T03:36:29.617Z,17.72
2023-03-17T03:38:56.052Z,17.72
2023-03-17T03:41:22.560Z,17.73
2023-03-17T03:43:48.926Z,17.72
2023-03-17T03:46:15.864Z,17.73
2023-03-17T03:48:42.269Z,17.71
2023-03-17T03:51:08.662Z,17.72
2023-03-17T03:53:35.473Z,17.70
2023-03-17T03:56:02.074Z,17.71
2023-03-17T03:58:28.508Z,17.69
2023-03-17T04:00:55.236Z,17.70
2023-03-17T04:03:21.695Z,17.68
2023-03-17T04:05:48.126Z,17.68
2023-03-17T04:08:14.513Z,17.68
2023-03-17T04:10:41.030Z,17.68
2023-03-17T04:13:08.442Z,17.68
2023-03-17T04:15:34.926Z,17.68
2023-03-17T04:18:01.375Z,17.70
2023-03-17T04:20:27.752Z,17.69
2023-03-17T04:22:54.203Z,17.68
2023-03-17T04:25:20.583Z,17.66
2023-03-17T04:27:47.165Z,17.66
2023-03-17T04:30:14.457Z,17.69
2023-03-17T04:32:41.684Z,17.68
2023-03-17T04:35:10.985Z,17.68
2023-03-17T04:37:38.766Z,17.66
2023-03-17T04:40:08.276Z,17.65
2023-03-17T04:42:34.629Z,17.64
2023-03-17T04:45:01.030Z,17.63
2023-03-17T04:47:27.498Z,17.64
2023-03-17T04:49:54.036Z,17.64
2023-03-17T04:52:20.422Z,17.63
2023-03-17T04:54:46.939Z,17.64
2023-03-17T04:57:13.374Z,17.63
2023-03-17T04:59:39.781Z,17.63
2023-03-17T05:02:09.170Z,17.62
2023-03-17T05:04:36.328Z,17.62
2023-03-17T05:07:02.924Z,17.62
2023-03-17T05:09:29.397Z,17.62
2023-03-17T05:11:55.981Z,17.63
2023-03-17T05:14:22.571Z,17.63
2023-03-17T05:16:49.250Z,17.64
2023-03-17T05:19:16.648Z,17.64
2023-03-17T05:21:43.725Z,17.65
2023-03-17T05:24:10.410Z,17.65
2023-03-17T05:26:36.793Z,17.65
2023-03-17T05:29:03.237Z,17.67
2023-03-17T05:31:31.074Z,17.69
2023-03-17T05:33:57.771Z,17.70
2023-03-17T05:36:24.270Z,17.70
2023-03-17T05:38:50.696Z,17.68
2023-03-17T05:41:17.789Z,17.68
2023-03-17T05:43:44.155Z,17.69
2023-03-17T05:46:11.169Z,17.70
2023-03-17T05:48:37.580Z,17.68
2023-03-17T05:51:04.842Z,17.68
2023-03-17T05:53:31.252Z,17.70
2023-03-17T05:55:57.797Z,17.68
2023-03-17T05:58:24.152Z,17.67
2023-03-17T06:00:51.157Z,17.67
2023-03-17T06:03:17.596Z,17.66
2023-03-17T06:05:44.045Z,17.66
2023-03-17T06:08:10.573Z,17.66
2023-03-17T06:10:36.929Z,17.66
2023-03-17T06:13:04.504Z,17.64
2023-03-17T06:15:31.305Z,17.65
2023-03-17T06:17:57.958Z,17.64
2023-03-17T06:20:24.291Z,17.64
2023-03-17T06:23:03.230Z,17.65
2023-03-17T06:25:30.845Z,17.65
2023-03-17T06:27:57.721Z,17.64
2023-03-17T06:30:24.200Z,17.64
2023-03-17T06:32:50.701Z,17.63
2023-03-17T06:35:18.060Z,17.63
2023-03-17T06:37:44.586Z,17.62
2023-03-17T06:40:11.346Z,17.61
2023-03-17T06:42:37.786Z,17.60
2023-03-17T06:45:04.418Z,17.60
2023-03-17T06:47:31.286Z,17.59
2023-03-17T06:49:57.641Z,17.60
2023-03-17T06:52:24.139Z,17.59
2023-03-17T06:54:50.633Z,17.58
2023-03-17T06:57:16.939Z,17.58
2023-03-17T06:59:43.387Z,17.58
2023-03-17T07:02:11.248Z,17.59
2023-03-17T07:04:38.278Z,17.58
2023-03-17T07:07:05.682Z,17.62
2023-03-17T07:09:33.483Z,17.61
2023-03-17T07:12:04.874Z,17.63
2023-03-17T07:14:35.658Z,17.61
2023-03-17T07:17:06.246Z,17.62
2023-03-17T07:19:33.032Z,17.61
2023-03-17T07:21:59.408Z,17.62
2023-03-17T07:24:26.033Z,17.63
2023-03-17T07:26:52.867Z,17.65
2023-03-17T07:29:19.328Z,17.66
2023-03-17T07:31:45.879Z,17.66
2023-03-17T07:34:12.837Z,17.73
2023-03-17T07:36:39.329Z,17.83
2023-03-17T07:39:05.757Z,17.92
2023-03-17T07:41:32.084Z,18.02
2023-03-17T07:43:58.572Z,18.10
2023-03-17T07:46:25.136Z,18.19
2023-03-17T07:48:51.702Z,18.24
2023-03-17T07:51:21.044Z,18.26
2023-03-17T07:53:47.881Z,18.26
2023-03-17T07:56:14.249Z,18.24
2023-03-17T07:58:41.669Z,18.24
2023-03-17T08:01:08.611Z,18.24
2023-03-17T08:03:35.479Z,18.25
2023-03-17T08:06:02.975Z,18.25
2023-03-17T08:08:29.551Z,18.27
2023-03-17T08:11:05.513Z,18.26
2023-03-17T08:13:32.709Z,18.28
2023-03-17T08:15:59.204Z,18.30
2023-03-17T08:18:25.686Z,18.31
2023-03-17T08:20:52.095Z,18.34
2023-03-17T08:23:19.214Z,18.34
2023-03-17T08:25:46.669Z,18.37
2023-03-17T08:28:14.178Z,18.38
2023-03-17T08:30:41.925Z,18.39
2023-03-17T08:33:09.153Z,18.40
2023-03-17T08:35:37.382Z,18.40
2023-03-17T08:38:04.759Z,18.40
2023-03-17T08:40:31.646Z,18.43
2023-03-17T08:42:58.315Z,18.42
2023-03-17T08:45:24.898Z,18.45
2023-03-17T08:47:51.337Z,18.45
2023-03-17T08:50:19.712Z,18.47
2023-03-17T08:52:46.629Z,18.47
2023-03-17T08:55:13.603Z,18.47
2023-03-17T08:57:40.028Z,18.48
2023-03-17T09:00:11.117Z,18.47
2023-03-17T09:02:38.274Z,18.47
2023-03-17T09:05:06.069Z,18.45
2023-03-17T09:07:33.293Z,18.47
2023-03-17T09:09:59.974Z,18.45
2023-03-17T09:12:26.597Z,18.44
2023-03-17T09:14:53.377Z,18.49
2023-03-17T09:17:20.405Z,18.50
2023-03-17T09:19:47.049Z,18.53
2023-03-17T09:22:15.207Z,18.56
2023-03-17T09:24:42.034Z,18.58
2023-03-17T09:27:08.420Z,18.57
2023-03-17T09:29:34.821Z,18.56
2023-03-17T09:32:01.555Z,18.55
2023-03-17T09:34:28.213Z,18.55
2023-03-17T09:36:54.669Z,18.57
2023-03-17T09:39:23.040Z,18.58
2023-03-17T09:41:57.102Z,18.59
2023-03-17T09:44:41.966Z,18.60
2023-03-17T09:47:08.559Z,18.60
2023-03-17T09:49:42.100Z,18.59
2023-03-17T09:52:13.654Z,18.62
2023-03-17T09:54:41.813Z,18.63
2023-03-17T09:57:24.823Z,18.64
2023-03-17T09:59:55.222Z,18.64
2023-03-17T10:02:27.695Z,18.65
2023-03-17T10:04:54.369Z,18.68
2023-03-17T10:07:24.059Z,18.69
2023-03-17T10:10:05.191Z,18.71
2023-03-17T10:12:58.180Z,18.72
2023-03-17T10:15:33.028Z,18.74
2023-03-17T10:17:59.595Z,18.74
2023-03-17T10:20:28.897Z,18.76
2023-03-17T10:22:58.096Z,18.77
2023-03-17T10:25:32.748Z,18.77
2023-03-17T10:28:01.712Z,18.79
2023-03-17T10:30:30.555Z,18.80
2023-03-17T10:32:58.871Z,18.81
2023-03-17T10:35:25.487Z,18.81
2023-03-17T10:37:58.896Z,18.83
2023-03-17T10:40:31.596Z,18.84
2023-03-17T10:43:03.811Z,18.85
2023-03-17T10:45:32.473Z,18.86
2023-03-17T10:48:01.260Z,18.86
2023-03-17T10:50:30.034Z,18.88
2023-03-17T10:53:05.993Z,18.88
2023-03-17T10:55:33.826Z,18.89
2023-03-17T10:58:03.223Z,18.90
2023-03-17T11:00:33.886Z,18.92
2023-03-17T11:03:03.482Z,18.92
2023-03-17T11:05:30.169Z,18.95
2023-03-17T11:07:57.782Z,18.96
2023-03-17T11:10:25.711Z,18.96
2023-03-17T11:13:01.280Z,18.97
2023-03-17T11:15:35.849Z,18.98
2023-03-17T11:18:11.344Z,18.99
2023-03-17T11:20:50.332Z,18.99
2023-03-17T11:23:35.254Z,19.01
2023-03-17T11:26:20.446Z,19.03
2023-03-17T11:28:50.014Z,19.04
2023-03-17T11:31:22.250Z,19.05
2023-03-17T11:34:08.927Z,19.05
2023-03-17T11:36:50.571Z,19.06
2023-03-17T11:39:20.687Z,19.06
2023-03-17T11:41:55.837Z,19.08
2023-03-17T11:44:22.190Z,19.09
2023-03-17T11:47:07.382Z,19.09
2023-03-17T11:49:38.051Z,19.10
2023-03-17T11:52:13.671Z,19.12
2023-03-17T11:54:45.906Z,19.12
2023-03-17T11:57:19.813Z,19.12
2023-03-17T11:59:59.302Z,19.14
2023-03-17T12:02:31.865Z,19.15
2023-03-17T12:05:09.901Z,19.15
2023-03-17T12:07:42.436Z,19.16
2023-03-17T12:10:22.989Z,19.16
2023-03-17T12:12:59.333Z,19.18
2023-03-17T12:15:31.563Z,19.17
2023-03-17T12:18:02.816Z,19.19
2023-03-17T12:20:32.311Z,19.19
2023-03-17T12:23:31.785Z,19.19
2023-03-17T12:26:01.045Z,19.19
2023-03-17T12:28:31.163Z,19.19
2023-03-17T12:31:04.203Z,19.20
2023-03-17T12:33:40.764Z,19.20
2023-03-17T12:36:07.830Z,19.20
2023-03-17T12:38:54.885Z,19.21
2023-03-17T12:41:21.177Z,19.21
2023-03-17T12:43:56.575Z,19.21
2023-03-17T12:46:28.298Z,19.21
2023-03-17T12:49:01.217Z,19.21
2023-03-17T12:51:33.400Z,19.23
2023-03-17T12:54:00.236Z,19.24
2023-03-17T12:56:30.705Z,19.24
2023-03-17T12:59:03.091Z,19.25
2023-03-17T13:01:39.839Z,19.25
2023-03-17T13:04:06.644Z,19.26
2023-03-17T13:06:42.627Z,19.26
2023-03-17T13:09:30.315Z,19.26
2023-03-17T13:11:58.586Z,19.25
2023-03-17T13:14:26.335Z,19.26
2023-03-17T13:17:02.689Z,19.26
2023-03-17T13:19:33.005Z,19.27
2023-03-17T13:21:59.828Z,19.27
2023-03-17T13:24:36.111Z,19.27
2023-03-17T13:27:04.537Z,19.25
2023-03-17T13:29:33.747Z,19.26
2023-03-17T13:32:26.449Z,19.24
2023-03-17T13:35:02.149Z,19.24
2023-03-17T13:37:30.888Z,19.24
2023-03-17T13:40:16.309Z,19.24
2023-03-17T13:42:49.274Z,19.22
2023-03-17T13:45:26.011Z,19.24
2023-03-17T13:47:52.598Z,19.22
2023-03-17T13:50:30.789Z,19.21
2023-03-17T13:52:57.247Z,19.22
2023-03-17T13:55:24.382Z,19.22
2023-03-17T13:58:11.445Z,19.20
2023-03-17T14:00:39.498Z,19.19
2023-03-17T14:03:12.191Z,19.21
2023-03-17T14:05:39.649Z,19.19
2023-03-17T14:08:15.481Z,19.20
2023-03-17T14:10:44.170Z,19.22
2023-03-17T14:13:25.244Z,19.21
2023-03-17T14:15:58.587Z,19.21
2023-03-17T14:18:39.142Z,19.22
2023-03-17T14:21:11.650Z,19.21
2023-03-17T14:23:38.233Z,19.21
2023-03-17T14:26:05.088Z,19.22
2023-03-17T14:28:33.033Z,19.21
2023-03-17T14:31:01.326Z,19.21
2023-03-17T14:33:28.873Z,19.21
2023-03-17T14:35:59.505Z,19.20
2023-03-17T14:38:27.996Z,19.21
2023-03-17T14:41:00.259Z,19.19
2023-03-17T14:43:26.745Z,19.20
2023-03-17T14:45:54.562Z,19.20
2023-03-17T14:48:23.539Z,19.21
2023-03-17T14:50:52.134Z,19.21
2023-03-17T14:53:19.407Z,19.22
2023-03-17T14:55:46.595Z,19.21
2023-03-17T14:58:22.823Z,19.22
2023-03-17T15:00:54.673Z,19.22
2023-03-17T15:03:22.868Z,19.22
2023-03-17T15:05:49.851Z,19.21
2023-03-17T15:08:34.522Z,19.21
2023-03-17T15:11:04.602Z,19.21
2023-03-17T15:13:33.943Z,19.20
2023-03-17T15:16:05.335Z,19.20
2023-03-17T15:18:32.017Z,19.19
2023-03-17T15:21:00.300Z,19.20
2023-03-17T15:23:28.988Z,19.20
2023-03-17T15:25:56.465Z,19.21
2023-03-17T15:28:24.621Z,19.21
2023-03-17T15:30:52.053Z,19.21
2023-03-17T15:33:18.565Z,19.21
2023-03-17T15:35:44.894Z,19.21
2023-03-17T15:38:11.807Z,19.22
2023-03-17T15:40:38.166Z,19.21
2023-03-17T15:43:04.595Z,19.22
2023-03-17T15:45:31.008Z,19.22
2023-03-17T15:47:57.730Z,19.21
2023-03-17T15:50:26.090Z,19.22
2023-03-17T15:52:58.622Z,19.21
2023-03-17T15:55:29.836Z,19.20
2023-03-17T15:57:56.572Z,19.20
2023-03-17T16:00:24.054Z,19.20
2023-03-17T16:02:52.104Z,19.19
2023-03-17T16:05:19.993Z,19.20
2023-03-17T16:07:47.158Z,19.19
2023-03-17T16:10:18.552Z,19.19
2023-03-17T16:12:45.102Z,19.18
2023-03-17T16:15:22.499Z,19.19
2023-03-17T16:17:51.066Z,19.15
2023-03-17T16:20:20.530Z,19.13
2023-03-17T16:22:46.897Z,19.14
2023-03-17T16:25:27.917Z,19.11
2023-03-17T16:27:55.392Z,19.09
2023-03-17T16:30:32.204Z,19.08
2023-03-17T16:33:03.171Z,19.08
2023-03-17T16:35:29.791Z,19.06
2023-03-17T16:37:56.204Z,19.05
2023-03-17T16:40:22.584Z,19.04
2023-03-17T16:42:49.477Z,19.05
2023-03-17T16:45:22.028Z,19.05
2023-03-17T16:47:49.227Z,19.04
2023-03-17T16:50:17.268Z,19.05
2023-03-17T16:52:43.741Z,19.04
2023-03-17T16:55:13.384Z,19.05
2023-03-17T16:57:43.169Z,19.05
2023-03-17T17:00:15.444Z,19.05
2023-03-17T17:02:41.974Z,19.05
2023-03-17T17:05:21.939Z,19.05
2023-03-17T17:07:49.681Z,19.03
2023-03-17T17:10:17.535Z,19.04
2023-03-17T17:12:44.081Z,19.03
2023-03-17T17:15:11.388Z,19.03
2023-03-17T17:17:39.335Z,19.04
2023-03-17T17:20:16.634Z,19.04
2023-03-17T17:22:43.053Z,19.03
2023-03-17T17:25:10.349Z,19.03
2023-03-17T17:27:37.508Z,19.04
2023-03-17T17:30:04.616Z,19.03
2023-03-17T17:32:31.260Z,19.03
2023-03-17T17:34:57.640Z,19.03
2023-03-17T17:37:27.130Z,19.03
2023-03-17T17:39:53.713Z,19.02
2023-03-17T17:42:21.055Z,19.02
2023-03-17T17:44:47.948Z,19.02
2023-03-17T17:47:14.702Z,19.02
2023-03-17T17:49:41.315Z,19.02
2023-03-17T17:52:07.689Z,19.01
2023-03-17T17:54:34.063Z,19.01
2023-03-17T17:57:00.427Z,19.01
2023-03-17T17:59:27.093Z,19.00
2023-03-17T18:01:53.464Z,18.99
2023-03-17T18:04:20.222Z,19.00
2023-03-17T18:06:47.028Z,19.00
2023-03-17T18:09:13.712Z,19.00
2023-03-17T18:11:41.531Z,18.99
2023-03-17T18:14:08.458Z,18.98
2023-03-17T18:16:38.416Z,18.98
2023-03-17T18:19:06.663Z,18.97
2023-03-17T18:21:33.259Z,18.96
2023-03-17T18:23:59.821Z,18.97
2023-03-17T18:26:26.185Z,18.96
2023-03-17T18:28:52.865Z,18.95
2023-03-17T18:31:31.612Z,18.95
2023-03-17T18:34:03.228Z,18.95
2023-03-17T18:36:29.736Z,18.95
2023-03-17T18:38:56.536Z,18.93
2023-03-17T18:41:24.216Z,18.92
2023-03-17T18:43:50.638Z,18.92
2023-03-17T18:46:17.282Z,18.91
2023-03-17T18:48:43.637Z,18.91
2023-03-17T18:51:10.293Z,18.90
2023-03-17T18:53:38.198Z,18.89
2023-03-17T18:56:04.732Z,18.89
2023-03-17T18:58:31.143Z,18.90
2023-03-17T19:01:01.477Z,18.89
2023-03-17T19:03:28.860Z,18.89
2023-03-17T19:05:55.552Z,18.89
2023-03-17T19:08:22.468Z,18.89
2023-03-17T19:10:48.931Z,18.88
2023-03-17T19:13:15.992Z,18.89
2023-03-17T19:15:42.527Z,18.88
2023-03-17T19:18:09.628Z,18.87
2023-03-17T19:20:36.600Z,18.88
2023-03-17T19:23:04.723Z,18.88
2023-03-17T19:25:31.649Z,18.88
2023-03-17T19:27:59.099Z,18.88
2023-03-17T19:30:25.639Z,18.85
2023-03-17T19:32:52.055Z,18.86
2023-03-17T19:35:18.533Z,18.86
2023-03-17T19:37:44.924Z,18.87
2023-03-17T19:40:13.285Z,18.85
2023-03-17T19:42:39.645Z,18.87
2023-03-17T19:45:06.513Z,18.85
2023-03-17T19:47:32.928Z,18.84
2023-03-17T19:49:59.366Z,18.84
2023-03-17T19:52:25.779Z,18.82
2023-03-17T19:54:52.122Z,18.82
2023-03-17T19:57:20.830Z,18.81
2023-03-17T19:59:50.390Z,18.81
2023-03-17T20:02:17.047Z,18.79
2023-03-17T20:04:43.589Z,18.80
2023-03-17T20:07:10.705Z,18.80
2023-03-17T20:09:38.166Z,18.80
2023-03-17T20:12:04.690Z,18.79
2023-03-17T20:14:31.118Z,18.78
2023-03-17T20:16:57.593Z,18.78
2023-03-17T20:19:24.017Z,18.78
2023-03-17T20:21:50.433Z,18.77
2023-03-17T20:24:17.496Z,18.77
2023-03-17T20:26:44.638Z,18.78
2023-03-17T20:29:14.247Z,18.77
2023-03-17T20:31:41.391Z,18.78
2023-03-17T20:34:08.054Z,18.78
2023-03-17T20:36:34.590Z,18.78
2023-03-17T20:39:01.167Z,18.78
2023-03-17T20:41:27.664Z,18.77
2023-03-17T20:43:54.048Z,18.78
2023-03-17T20:46:21.832Z,18.77
2023-03-17T20:48:48.572Z,18.77
2023-03-17T20:51:16.815Z,18.77
2023-03-17T20:53:44.678Z,18.77
2023-03-17T20:56:13.134Z,18.78
2023-03-17T20:58:40.184Z,18.78
2023-03-17T21:01:08.033Z,18.77
2023-03-17T21:03:34.441Z,18.77
2023-03-17T21:06:00.961Z,18.78
2023-03-17T21:08:27.657Z,18.76
2023-03-17T21:10:54.090Z,18.78
2023-03-17T21:13:20.666Z,18.77
2023-03-17T21:15:47.479Z,18.76
2023-03-17T21:18:14.557Z,18.77
2023-03-17T21:20:42.221Z,18.76
2023-03-17T21:23:08.652Z,18.76
2023-03-17T21:25:36.191Z,18.76
2023-03-17T21:28:04.034Z,18.76
2023-03-17T21:30:31.052Z,18.76
2023-03-17T21:32:57.852Z,18.76
2023-03-17T21:35:25.005Z,18.75
2023-03-17T21:37:51.765Z,18.77
2023-03-17T21:40:18.881Z,18.80
2023-03-17T21:42:48.134Z,18.84
2023-03-17T21:45:14.998Z,18.88
2023-03-17T21:47:44.544Z,18.88
2023-03-17T21:50:12.459Z,18.89
2023-03-17T21:52:39.045Z,18.90
2023-03-17T21:55:05.826Z,18.90
2023-03-17T21:57:32.266Z,18.89
2023-03-17T21:59:58.674Z,18.87
2023-03-17T22:02:25.188Z,18.86
2023-03-17T22:04:51.653Z,18.83
2023-03-17T22:07:18.024Z,18.84
2023-03-17T22:09:44.499Z,18.82
2023-03-17T22:12:11.052Z,18.82
2023-03-17T22:14:37.523Z,18.81
2023-03-17T22:17:05.375Z,18.80
2023-03-17T22:19:32.229Z,18.80
2023-03-17T22:21:59.157Z,18.79
2023-03-17T22:24:25.715Z,18.78
2023-03-17T22:26:52.282Z,18.77
2023-03-17T22:29:18.814Z,18.78
2023-03-17T22:31:47.338Z,18.78
2023-03-17T22:34:13.880Z,18.78
2023-03-17T22:36:40.861Z,18.75
2023-03-17T22:39:10.506Z,18.74
2023-03-17T22:41:37.757Z,18.73
2023-03-17T22:44:04.328Z,18.74
2023-03-17T22:46:30.751Z,18.75
2023-03-17T22:48:57.193Z,18.74
2023-03-17T22:51:24.880Z,18.73
2023-03-17T22:53:51.789Z,18.73
2023-03-17T22:56:19.083Z,18.73
2023-03-17T22:58:45.944Z,18.73
2023-03-17T23:01:13.363Z,18.71
2023-03-17T23:03:40.183Z,18.73
2023-03-17T23:06:07.086Z,18.72
2023-03-17T23:08:35.245Z,18.71
2023-03-17T23:11:03.125Z,18.71
2023-03-17T23:13:30.381Z,18.71
2023-03-17T23:15:57.171Z,18.70
2023-03-17T23:18:24.000Z,18.71
2023-03-17T23:20:50.805Z,18.70
2023-03-17T23:23:17.586Z,18.69
2023-03-17T23:25:44.087Z,18.70
2023-03-17T23:28:10.805Z,18.72
2023-03-17T23:30:37.249Z,18.71
2023-03-17T23:33:04.913Z,18.71
2023-03-17T23:35:31.947Z,18.72
2023-03-17T23:37:58.323Z,18.72
2023-03-17T23:40:24.763Z,18.72
2023-03-17T23:42:54.370Z,18.71
2023-03-17T23:45:20.936Z,18.73
2023-03-17T23:47:47.366Z,18.71
2023-03-17T23:50:14.855Z,18.72
2023-03-17T23:52:42.410Z,18.72
2023-03-17T23:55:10.173Z,18.72
2023-03-17T23:57:37.808Z,18.71
